Time;durP1;ratioP1;P1;durP2;ratioP2;P2;SDS_P1;SDS_P2;PMS_P1;PMS_P2;Temp;Humidity;BMP_temperature;BMP_pressure;BME280_temperature;BME280_humidity;BME280_pressure;Samples;Min_cycle;Max_cycle;Signal;HPM_P1;HPM_P2
2023/05/10 00:00:54;;;;;;;74.05;18.50;;;;;;;13.16;100.00;100513.06;4940217;29;20035;-83
2023/05/10 00:03:20;;;;;;;69.57;17.33;;;;;;;13.15;100.00;100515.97;4956229;28;20066;-83
2023/05/10 00:05:45;;;;;;;77.32;16.98;;;;;;;13.20;100.00;100527.41;4955906;28;20445;-83
2023/05/10 00:08:11;;;;;;;70.25;17.63;;;;;;;13.12;100.00;100527.25;4940465;29;20035;-83
2023/05/10 00:10:37;;;;;;;65.40;16.92;;;;;;;12.94;100.00;100514.25;4936987;29;20490;-85
2023/05/10 00:13:03;;;;;;;65.30;15.73;;;;;;;12.97;100.00;100519.47;4987931;28;20039;-85
2023/05/10 00:15:30;;;;;;;73.28;16.77;;;;;;;13.01;100.00;100528.28;4956585;29;20486;-85
2023/05/10 00:17:56;;;;;;;62.28;16.73;;;;;;;13.05;100.00;100525.09;4956223;28;20027;-85
2023/05/10 00:20:21;;;;;;;78.85;18.73;;;;;;;12.99;100.00;100525.69;4956169;29;20042;-83
2023/05/10 00:22:47;;;;;;;66.70;15.98;;;;;;;13.05;100.00;100519.59;4940344;29;20035;-83
2023/05/10 00:25:12;;;;;;;70.85;18.52;;;;;;;13.03;100.00;100518.84;4940105;29;20374;-83
2023/05/10 00:27:38;;;;;;;67.00;18.17;;;;;;;12.96;100.00;100528.72;4955783;28;20039;-83
2023/05/10 00:30:03;;;;;;;71.53;17.85;;;;;;;12.90;100.00;100510.03;4955754;28;20046;-83
2023/05/10 00:32:29;;;;;;;62.60;18.05;;;;;;;13.02;100.00;100521.78;4936236;28;20147;-82
2023/05/10 00:34:55;;;;;;;65.18;18.60;;;;;;;12.97;100.00;100521.31;4955944;28;20031;-82
2023/05/10 00:37:20;;;;;;;69.85;18.48;;;;;;;13.01;100.00;100525.53;4939329;29;20477;-83
2023/05/10 00:39:45;;;;;;;73.20;18.90;;;;;;;12.97;100.00;100516.72;4955593;29;20043;-84
2023/05/10 00:42:11;;;;;;;76.53;18.95;;;;;;;12.88;100.00;100514.81;4955879;28;20431;-84
2023/05/10 00:44:36;;;;;;;76.97;20.13;;;;;;;12.90;100.00;100515.53;4939953;29;20042;-84
2023/05/10 00:47:02;;;;;;;71.20;20.02;;;;;;;12.79;100.00;100513.81;4955414;29;20043;-83
2023/05/10 00:49:28;;;;;;;73.90;20.10;;;;;;;12.86;100.00;100519.59;4955797;28;20125;-84
2023/05/10 00:51:54;;;;;;;75.38;18.25;;;;;;;12.85;100.00;100515.13;4957014;28;20043;-83
2023/05/10 00:54:19;;;;;;;68.18;18.75;;;;;;;12.86;100.00;100503.13;4971657;28;20507;-84
2023/05/10 00:56:48;;;;;;;76.68;19.80;;;;;;;12.98;100.00;100510.19;4971805;28;20042;-83
2023/05/10 00:59:16;;;;;;;79.95;20.55;;;;;;;12.95;100.00;100506.88;4939780;29;20122;-83
2023/05/10 01:01:42;;;;;;;63.75;18.55;;;;;;;12.88;100.00;100515.69;4972916;28;20038;-85
2023/05/10 01:04:09;;;;;;;76.93;19.75;;;;;;;12.91;100.00;100514.53;4959681;28;20039;-85
2023/05/10 01:06:35;;;;;;;70.22;19.70;;;;;;;12.80;100.00;100515.53;4941299;28;20050;-85
2023/05/10 01:09:00;;;;;;;61.22;18.60;;;;;;;12.79;100.00;100513.81;4954748;29;20065;-85
2023/05/10 01:11:26;;;;;;;91.13;21.65;;;;;;;12.79;100.00;100511.09;4925916;29;20074;-85
2023/05/10 01:13:56;;;;;;;78.43;21.40;;;;;;;12.73;100.00;100508.03;4944270;29;20043;-85
2023/05/10 01:16:24;;;;;;;93.70;23.33;;;;;;;12.78;100.00;100519.47;4981002;28;20035;-85
2023/05/10 01:18:52;;;;;;;99.82;24.08;;;;;;;12.80;100.00;100515.53;4964212;29;20027;-85
2023/05/10 01:21:40;;;;;;;107.38;26.65;;;;;;;12.88;100.00;100518.44;4960739;29;20039;-85
2023/05/10 01:24:39;;;;;;;104.38;26.73;;;;;;;12.77;100.00;100514.97;4978857;28;20068;-85
2023/05/10 01:28:00;;;;;;;115.88;27.27;;;;;;;12.81;100.00;100520.03;4960284;29;20050;-84
2023/05/10 01:30:48;;;;;;;93.50;25.52;;;;;;;12.73;100.00;100513.53;4956076;28;20106;-85
2023/05/10 01:33:50;;;;;;;111.28;26.13;;;;;;;12.64;100.00;100513.38;4941832;29;20070;-84
2023/05/10 01:36:48;;;;;;;128.97;28.27;;;;;;;12.58;100.00;100507.59;4961093;28;20044;-84
2023/05/10 01:39:14;;;;;;;115.20;28.45;;;;;;;12.60;100.00;100511.06;4955902;29;20032;-85
2023/05/10 01:41:42;;;;;;;119.57;28.45;;;;;;;12.64;100.00;100521.63;4956083;28;20050;-85
2023/05/10 01:44:31;;;;;;;108.78;27.65;;;;;;;12.65;100.00;100517.84;4957297;28;20091;-84
2023/05/10 01:47:10;;;;;;;116.18;28.38;;;;;;;12.69;100.00;100510.19;4969432;28;20035;-85
2023/05/10 01:49:59;;;;;;;146.65;32.10;;;;;;;12.79;100.00;100518.44;4957285;28;20031;-85
2023/05/10 01:52:38;;;;;;;134.95;31.02;;;;;;;12.87;100.00;100513.09;4941682;29;20115;-85
2023/05/10 01:55:11;;;;;;;165.77;32.40;;;;;;;13.00;100.00;100508.19;4957604;28;20501;-85
2023/05/10 01:57:41;;;;;;;154.40;31.35;;;;;;;12.96;100.00;100503.97;4974102;28;20039;-86
2023/05/10 02:00:09;;;;;;;166.48;32.10;;;;;;;12.92;100.00;100502.56;4969090;28;20409;-86
2023/05/10 02:02:41;;;;;;;159.45;35.53;;;;;;;13.03;100.00;100507.00;4957658;28;20035;-86
2023/05/10 02:05:08;;;;;;;177.25;36.42;;;;;;;13.05;100.00;100511.34;4957883;29;20508;-86
2023/05/10 02:07:36;;;;;;;158.77;36.50;;;;;;;13.06;100.00;100507.56;4989839;28;20050;-87
2023/05/10 02:10:04;;;;;;;171.13;35.97;;;;;;;13.02;100.00;100497.91;4951346;28;20039;-86
2023/05/10 02:12:32;;;;;;;181.07;36.58;;;;;;;13.04;100.00;100504.13;4943067;28;20051;-87
2023/05/10 02:15:01;;;;;;;149.35;35.17;;;;;;;12.98;100.00;100507.44;4962093;29;20042;-89
2023/05/10 02:17:28;;;;;;;161.40;35.28;;;;;;;13.10;100.00;100521.03;4945632;29;20043;-87
2023/05/10 02:19:55;;;;;;;143.43;37.42;;;;;;;13.10;100.00;100521.03;4940873;29;20047;-87
2023/05/10 02:22:22;;;;;;;156.93;36.83;;;;;;;13.18;100.00;100530.31;4951977;29;20036;-87
2023/05/10 02:24:50;;;;;;;180.43;36.90;;;;;;;13.06;100.00;100502.06;4957139;29;20062;-85
2023/05/10 02:27:17;;;;;;;157.77;36.47;;;;;;;13.08;100.00;100514.81;4976547;28;20035;-86
2023/05/10 02:29:44;;;;;;;139.25;35.55;;;;;;;13.17;100.00;100530.44;4977134;28;20099;-86
2023/05/10 02:32:10;;;;;;;146.77;37.08;;;;;;;13.00;100.00;100532.91;4945191;29;20050;-86
2023/05/10 02:34:36;;;;;;;134.10;33.85;;;;;;;12.90;100.00;100518.28;4961251;29;20042;-86
2023/05/10 02:37:03;;;;;;;144.27;35.38;;;;;;;13.01;100.00;100540.13;4941973;28;20034;-86
2023/05/10 02:39:31;;;;;;;127.38;35.40;;;;;;;12.86;100.00;100525.09;4959535;29;20035;-86
2023/05/10 02:41:57;;;;;;;124.95;35.72;;;;;;;12.87;100.00;100518.56;4991795;28;20051;-86
2023/05/10 02:44:26;;;;;;;137.60;35.05;;;;;;;13.04;100.00;100545.34;4974923;28;20032;-86
2023/05/10 02:46:52;;;;;;;123.25;35.28;;;;;;;13.00;100.00;100521.03;4925904;29;20043;-86
2023/05/10 02:49:18;;;;;;;160.63;38.08;;;;;;;13.16;100.00;100539.69;4941430;28;20085;-86
2023/05/10 02:51:49;;;;;;;131.23;37.83;;;;;;;13.06;100.00;100532.31;4956948;29;20034;-86
2023/05/10 02:54:24;;;;;;;131.75;36.72;;;;;;;12.98;100.00;100515.69;4974870;28;20047;-86
2023/05/10 02:56:53;;;;;;;121.53;37.10;;;;;;;13.05;100.00;100537.94;4961137;28;20038;-85
2023/05/10 02:59:19;;;;;;;127.57;38.55;;;;;;;13.01;100.00;100537.38;4945081;29;20125;-85
2023/05/10 03:01:45;;;;;;;132.98;39.58;;;;;;;13.07;100.00;100541.44;4960612;29;20047;-85
2023/05/10 03:04:13;;;;;;;125.60;38.67;;;;;;;13.00;100.00;100535.66;4991979;28;20043;-85
2023/05/10 03:06:39;;;;;;;128.45;38.20;;;;;;;13.08;100.00;100539.56;4928171;29;20047;-85
2023/05/10 03:09:09;;;;;;;119.05;39.00;;;;;;;12.98;100.00;100542.31;4937160;29;20063;-85
2023/05/10 03:12:15;;;;;;;124.28;37.45;;;;;;;13.06;100.00;100539.69;4998243;28;20374;-86
2023/05/10 03:15:00;;;;;;;140.82;38.90;;;;;;;13.11;100.00;100539.28;4959945;28;20043;-86
2023/05/10 03:17:34;;;;;;;121.07;36.67;;;;;;;13.06;100.00;100542.44;4959820;28;20031;-85
2023/05/10 03:20:07;;;;;;;126.22;38.75;;;;;;;13.04;100.00;100534.34;4957045;29;20032;-86
2023/05/10 03:22:37;;;;;;;134.77;38.17;;;;;;;13.17;100.00;100539.56;4975336;28;20517;-85
2023/05/10 03:25:06;;;;;;;128.27;38.72;;;;;;;13.01;100.00;100531.03;4976337;28;20052;-86
2023/05/10 03:27:32;;;;;;;145.88;38.70;;;;;;;13.03;100.00;100543.59;4947826;29;20109;-87
2023/05/10 03:29:58;;;;;;;126.07;37.70;;;;;;;13.11;100.00;100556.63;4967799;29;20035;-85
2023/05/10 03:32:24;;;;;;;124.50;37.42;;;;;;;13.04;100.00;100560.97;4926573;29;20032;-86
2023/05/10 03:34:50;;;;;;;129.02;39.10;;;;;;;13.00;100.00;100552.16;4956085;29;20057;-85
2023/05/10 03:37:15;;;;;;;149.65;40.58;;;;;;;13.00;100.00;100554.91;4944053;28;20126;-86
2023/05/10 03:39:41;;;;;;;147.80;41.33;;;;;;;12.93;100.00;100561.13;4976525;28;20413;-85
2023/05/10 03:42:06;;;;;;;136.63;42.20;;;;;;;12.81;100.00;100554.91;4945003;29;20042;-85
2023/05/10 03:44:33;;;;;;;133.25;40.53;;;;;;;12.76;100.00;100548.97;4948735;29;20035;-85
2023/05/10 03:46:59;;;;;;;121.43;39.13;;;;;;;12.87;100.00;100570.78;4962451;28;20023;-85
2023/05/10 03:49:24;;;;;;;128.57;40.22;;;;;;;12.80;100.00;100570.50;4969008;28;20031;-85
2023/05/10 03:51:50;;;;;;;132.93;39.97;;;;;;;12.94;100.00;100569.22;4967530;29;20035;-84
2023/05/10 03:54:15;;;;;;;116.88;40.20;;;;;;;12.72;100.00;100566.72;4946129;29;20036;-85
2023/05/10 03:56:41;;;;;;;117.05;39.05;;;;;;;12.82;100.00;100573.09;4945476;29;20042;-85
2023/05/10 03:59:07;;;;;;;124.72;40.95;;;;;;;12.94;100.00;100571.09;4960062;29;20035;-85
2023/05/10 04:01:33;;;;;;;132.70;41.80;;;;;;;12.75;100.00;100555.47;4981336;28;20037;-85
2023/05/10 04:03:59;;;;;;;130.25;40.05;;;;;;;12.90;100.00;100576.00;4975692;28;20027;-84
2023/05/10 04:06:24;;;;;;;128.65;39.75;;;;;;;12.77;100.00;100565.28;4959954;28;20082;-85
2023/05/10 04:08:50;;;;;;;135.77;39.58;;;;;;;12.80;100.00;100578.72;4944307;29;20114;-87
2023/05/10 04:11:15;;;;;;;131.10;39.70;;;;;;;12.78;100.00;100589.00;4983060;28;20036;-85
2023/05/10 04:13:42;;;;;;;128.18;39.65;;;;;;;12.75;100.00;100583.78;4958243;29;22041;-86
2023/05/10 04:16:09;;;;;;;139.63;42.17;;;;;;;12.75;100.00;100569.19;4959278;29;20043;-87
2023/05/10 04:18:35;;;;;;;149.43;41.42;;;;;;;12.81;100.00;100568.63;4972123;28;20058;-87
2023/05/10 04:21:01;;;;;;;118.70;38.30;;;;;;;12.94;100.00;100582.09;4946314;29;20031;-86
2023/05/10 04:23:29;;;;;;;137.05;39.50;;;;;;;12.86;100.00;100580.06;4966779;28;20043;-85
2023/05/10 04:26:02;;;;;;;144.43;41.15;;;;;;;12.87;100.00;100573.53;4960277;28;20042;-85
2023/05/10 04:28:28;;;;;;;121.68;38.83;;;;;;;12.80;100.00;100569.63;4980025;28;20696;-86
2023/05/10 04:30:59;;;;;;;124.35;38.35;;;;;;;12.88;100.00;100578.03;4974766;28;20076;-87
2023/05/10 04:33:28;;;;;;;114.72;38.40;;;;;;;12.85;100.00;100581.94;4962947;28;20066;-86
2023/05/10 04:35:53;;;;;;;154.88;38.63;;;;;;;12.78;100.00;100564.28;4964847;28;20055;-86
2023/05/10 04:38:19;;;;;;;144.98;39.00;;;;;;;12.82;100.00;100570.34;4965934;28;20501;-86
2023/05/10 04:40:44;;;;;;;124.50;37.85;;;;;;;12.90;100.00;100588.88;4931734;29;20046;-87
2023/05/10 04:43:13;;;;;;;126.07;38.58;;;;;;;12.80;100.00;100578.72;4951458;28;20508;-86
2023/05/10 04:45:39;;;;;;;121.63;38.05;;;;;;;12.85;100.00;100584.69;4998255;28;20031;-87
2023/05/10 04:48:05;;;;;;;128.05;38.30;;;;;;;12.76;100.00;100573.69;4981223;28;20166;-87
2023/05/10 04:50:31;;;;;;;132.65;36.42;;;;;;;12.93;100.00;100586.72;4949858;29;20035;-86
2023/05/10 04:52:57;;;;;;;133.88;37.35;;;;;;;12.97;100.00;100581.78;4947571;29;20035;-85
2023/05/10 04:55:23;;;;;;;140.30;38.72;;;;;;;13.00;100.00;100590.63;4964150;28;20049;-85
2023/05/10 04:57:48;;;;;;;147.23;39.40;;;;;;;13.04;100.00;100592.06;4964312;29;20090;-86
2023/05/10 05:00:14;;;;;;;146.90;38.22;;;;;;;12.95;100.00;100592.06;4973376;28;20023;-88
2023/05/10 05:02:47;;;;;;;135.05;38.72;;;;;;;12.90;100.00;100583.38;4962527;28;20054;-88
2023/05/10 05:05:12;;;;;;;130.48;36.70;;;;;;;12.76;100.00;100581.94;4988687;28;20035;-86
2023/05/10 05:07:38;;;;;;;145.07;38.03;;;;;;;12.78;100.00;100575.28;5152524;23;20051;-86
2023/05/10 05:25:35;;;;;;;183.35;46.33;;;;;;;12.97;100.00;100610.16;5956108;23;21211;-83
2023/05/10 05:33:12;;;;;;;186.25;46.58;;;;;;;13.11;100.00;100619.00;5027241;28;20045;-88
2023/05/10 05:45:58;;;;;;;159.90;44.15;;;;;;;13.00;100.00;100619.97;5007354;28;20042;-88
2023/05/10 05:48:24;;;;;;;149.57;41.00;;;;;;;12.91;100.00;100621.72;4971087;28;20117;-88
2023/05/10 05:50:56;;;;;;;149.32;41.50;;;;;;;12.93;100.00;100614.19;4996297;28;20042;-90
2023/05/10 05:53:22;;;;;;;133.77;40.13;;;;;;;13.02;100.00;100628.97;4984309;28;20105;-85
2023/05/10 05:58:30;;;;;;;141.63;39.85;;;;;;;13.11;100.00;100635.47;5332619;22;20068;-87
2023/05/10 06:00:56;;;;;;;105.60;35.75;;;;;;;13.14;100.00;100646.19;5048302;28;20021;-86
2023/05/10 06:03:22;;;;;;;122.50;37.30;;;;;;;13.28;100.00;100644.88;5088552;28;20020;-83
2023/05/10 06:05:47;;;;;;;124.53;38.95;;;;;;;13.29;100.00;100649.38;5052372;28;20036;-86
2023/05/10 06:08:14;;;;;;;114.55;37.20;;;;;;;13.29;100.00;100654.88;5148157;22;20050;-86
2023/05/10 06:10:39;;;;;;;115.53;36.67;;;;;;;13.31;100.00;100653.69;5459964;23;20064;-88
2023/05/10 06:13:05;;;;;;;105.50;36.83;;;;;;;13.30;100.00;100646.50;5006242;28;20099;-81
2023/05/10 06:15:32;;;;;;;103.00;35.70;;;;;;;13.37;100.00;100647.66;4971637;28;20113;-87
2023/05/10 06:17:57;;;;;;;110.55;37.63;;;;;;;13.29;100.00;100642.00;4992115;28;20092;-86
2023/05/10 06:20:23;;;;;;;95.55;35.33;;;;;;;13.23;100.00;100637.06;5019228;28;21350;-86
2023/05/10 06:22:48;;;;;;;117.65;36.65;;;;;;;13.35;100.00;100646.94;4982203;28;20041;-86
2023/05/10 06:25:14;;;;;;;122.80;36.75;;;;;;;13.50;100.00;100660.28;4981326;28;20467;-87
2023/05/10 06:27:40;;;;;;;82.57;31.73;;;;;;;13.48;100.00;100670.53;5003689;28;20034;-89
2023/05/10 06:30:06;;;;;;;77.45;29.38;;;;;;;13.17;100.00;100666.00;4995733;28;20022;-91
2023/05/10 06:32:31;;;;;;;86.65;31.35;;;;;;;13.30;100.00;100664.84;5033276;28;20048;-84
2023/05/10 06:34:57;;;;;;;89.43;31.48;;;;;;;13.29;100.00;100653.00;5009088;28;20041;-85
2023/05/10 06:37:22;;;;;;;79.65;29.35;;;;;;;13.35;100.00;100668.94;5011756;28;20026;-88
2023/05/10 06:39:48;;;;;;;79.18;29.65;;;;;;;13.39;100.00;100658.53;4972637;28;20505;-88
2023/05/10 06:42:13;;;;;;;66.10;25.95;;;;;;;13.36;100.00;100667.06;4975848;28;20117;-90
2023/05/10 06:44:39;;;;;;;69.20;25.73;;;;;;;13.30;100.00;100663.00;5018673;28;20046;-90
2023/05/10 06:47:04;;;;;;;53.40;24.25;;;;;;;13.19;100.00;100657.63;4970746;28;20033;-92
2023/05/10 06:49:30;;;;;;;63.55;25.30;;;;;;;13.29;100.00;100668.63;4989175;28;20452;-89
2023/05/10 06:51:56;;;;;;;63.13;24.65;;;;;;;13.15;100.00;100669.91;4991720;28;20050;-88
2023/05/10 06:54:21;;;;;;;54.13;24.83;;;;;;;13.19;100.00;100685.13;4960682;28;20031;-85
2023/05/10 06:56:47;;;;;;;62.20;24.52;;;;;;;13.21;100.00;100680.34;5012924;28;20034;-89
2023/05/10 06:59:13;;;;;;;61.03;26.02;;;;;;;13.16;100.00;100680.75;5009692;28;20057;-90
2023/05/10 07:01:39;;;;;;;55.58;24.05;;;;;;;13.10;100.00;100667.59;4992826;28;20030;-89
2023/05/10 07:04:05;;;;;;;56.08;23.60;;;;;;;13.11;100.00;100688.56;4994112;28;20056;-86
2023/05/10 07:06:30;;;;;;;59.08;23.50;;;;;;;13.06;100.00;100680.75;4976535;28;20034;-86
2023/05/10 07:08:56;;;;;;;55.75;22.80;;;;;;;13.09;100.00;100690.59;4973274;28;20125;-81
2023/05/10 07:11:21;;;;;;;59.38;24.90;;;;;;;13.21;100.00;100683.94;4987434;28;20035;-89
2023/05/10 07:13:47;;;;;;;59.10;23.25;;;;;;;13.24;100.00;100693.81;4982653;28;20034;-86
2023/05/10 07:16:12;;;;;;;59.65;24.63;;;;;;;13.15;100.00;100689.16;5378767;22;20042;-87
2023/05/10 07:18:38;;;;;;;56.47;23.27;;;;;;;13.29;100.00;100685.97;4990295;28;20045;-84
2023/05/10 07:21:03;;;;;;;57.22;22.88;;;;;;;13.20;100.00;100675.88;4985134;28;20483;-85
2023/05/10 07:23:29;;;;;;;53.97;24.98;;;;;;;13.33;100.00;100698.47;4983063;28;20041;-86
2023/05/10 07:25:57;;;;;;;57.72;24.25;;;;;;;13.31;100.00;100694.94;5000662;28;20034;-86
2023/05/10 07:28:24;;;;;;;51.90;23.25;;;;;;;13.38;100.00;100707.16;4998321;28;20451;-87
2023/05/10 07:30:52;;;;;;;70.45;26.27;;;;;;;13.23;100.00;100701.19;5021404;28;20484;-87
2023/05/10 07:33:18;;;;;;;62.25;25.77;;;;;;;13.07;100.00;100687.13;5018796;28;20048;-86
2023/05/10 07:35:43;;;;;;;60.67;25.20;;;;;;;13.00;100.00;100699.69;5018044;28;20034;-86
2023/05/10 07:38:10;;;;;;;66.57;25.10;;;;;;;13.10;100.00;100714.34;5018693;28;20037;-86
2023/05/10 07:40:37;;;;;;;55.10;24.30;;;;;;;13.10;100.00;100718.94;5002310;28;20433;-86
2023/05/10 07:43:02;;;;;;;54.10;23.38;;;;;;;12.96;100.00;100699.09;5003408;28;20091;-87
2023/05/10 07:45:28;;;;;;;58.88;25.20;;;;;;;13.06;100.00;100716.47;5002109;28;20034;-87
2023/05/10 07:47:54;;;;;;;54.97;24.10;;;;;;;13.11;100.00;100723.44;5018922;28;20022;-86
2023/05/10 07:50:20;;;;;;;65.63;25.83;;;;;;;13.22;100.00;100724.19;5018291;28;20428;-87
2023/05/10 07:52:46;;;;;;;68.80;26.10;;;;;;;13.16;100.00;100730.25;5002282;28;20022;-87
2023/05/10 07:55:12;;;;;;;56.72;26.55;;;;;;;12.97;100.00;100713.69;5002085;28;20040;-87
2023/05/10 07:57:38;;;;;;;55.42;26.38;;;;;;;13.12;100.00;100733.41;5018869;28;20084;-87
2023/05/10 08:00:04;;;;;;;68.20;27.73;;;;;;;13.15;100.00;100742.28;5018326;28;20034;-87
2023/05/10 08:02:30;;;;;;;60.42;26.00;;;;;;;13.18;100.00;100732.84;5018633;28;20029;-87
2023/05/10 08:04:55;;;;;;;60.35;26.30;;;;;;;13.19;100.00;100727.22;5018102;28;20097;-87
2023/05/10 08:07:21;;;;;;;59.05;27.17;;;;;;;13.25;100.00;100720.28;5016944;28;20061;-81
2023/05/10 08:09:46;;;;;;;61.17;26.00;;;;;;;13.27;100.00;100732.00;5000417;28;20041;-84
2023/05/10 08:12:12;;;;;;;69.38;29.58;;;;;;;13.32;100.00;100717.84;5032146;28;20045;-86
2023/05/10 08:14:37;;;;;;;58.17;27.10;;;;;;;13.53;100.00;100740.63;4968959;28;20037;-85
2023/05/10 08:17:03;;;;;;;65.03;27.10;;;;;;;13.53;100.00;100746.13;5001155;28;20404;-85
2023/05/10 08:19:29;;;;;;;59.08;27.80;;;;;;;13.51;100.00;100733.50;5000793;28;20038;-87
2023/05/10 08:21:55;;;;;;;63.45;27.13;;;;;;;13.39;100.00;100724.53;4984904;28;20029;-86
2023/05/10 08:24:22;;;;;;;56.97;26.42;;;;;;;13.38;100.00;100745.66;4999255;28;20057;-86
2023/05/10 08:26:47;;;;;;;55.22;27.20;;;;;;;13.31;100.00;100747.19;5033543;28;20096;-86
2023/05/10 08:29:13;;;;;;;54.85;25.25;;;;;;;13.24;100.00;100757.03;5020818;28;20034;-85
2023/05/10 08:31:39;;;;;;;62.28;27.02;;;;;;;13.24;100.00;100740.53;5004246;28;20026;-86
2023/05/10 08:34:04;;;;;;;52.90;26.33;;;;;;;13.26;100.00;100766.00;4986832;28;20038;-86
2023/05/10 08:36:31;;;;;;;54.03;25.73;;;;;;;13.13;100.00;100740.66;5024890;28;20044;-86
2023/05/10 08:38:58;;;;;;;52.00;26.02;;;;;;;13.14;100.00;100768.00;5019196;28;20049;-88
2023/05/10 08:41:25;;;;;;;58.08;26.88;;;;;;;13.25;100.00;100772.53;5023572;28;20132;-85
2023/05/10 08:43:52;;;;;;;54.47;25.75;;;;;;;13.15;100.00;100764.25;5005793;28;20030;-85
2023/05/10 08:46:20;;;;;;;55.00;24.95;;;;;;;13.25;100.00;100767.03;5006010;28;20037;-85
2023/05/10 08:48:47;;;;;;;55.22;24.35;;;;;;;13.30;100.00;100772.09;5022622;28;20030;-85
2023/05/10 08:51:14;;;;;;;62.80;26.30;;;;;;;13.41;100.00;100780.25;5020213;28;20029;-86
2023/05/10 08:53:40;;;;;;;54.58;25.40;;;;;;;13.28;100.00;100761.25;5000623;28;20041;-86
2023/05/10 08:56:06;;;;;;;52.83;24.83;;;;;;;13.27;100.00;100789.75;5015406;28;20038;-86
2023/05/10 08:58:32;;;;;;;53.60;21.48;;;;;;;13.27;100.00;100786.16;5017074;28;20038;-86
2023/05/10 09:00:59;;;;;;;38.65;18.58;;;;;;;13.02;100.00;100786.50;5016301;28;20041;-87
2023/05/10 09:03:24;;;;;;;33.40;16.92;;;;;;;13.09;100.00;100791.44;4998710;28;20038;-88
2023/05/10 09:05:50;;;;;;;42.97;16.92;;;;;;;13.11;100.00;100798.53;4999759;28;20153;-85
2023/05/10 09:08:17;;;;;;;26.55;14.63;;;;;;;13.03;100.00;100790.09;5015734;28;20021;-86
2023/05/10 09:10:47;;;;;;;25.40;14.10;;;;;;;13.12;100.00;100800.28;5022138;28;20042;-86
2023/05/10 09:13:14;;;;;;;22.58;12.73;;;;;;;13.18;100.00;100804.34;5016128;28;20124;-86
2023/05/10 09:15:39;;;;;;;23.92;13.15;;;;;;;13.19;100.00;100798.69;4999491;28;20038;-85
2023/05/10 09:18:05;;;;;;;25.73;12.93;;;;;;;13.27;100.00;100814.50;5016572;28;20045;-85
2023/05/10 09:20:31;;;;;;;26.27;12.98;;;;;;;13.33;100.00;100805.72;5016382;28;20043;-86
2023/05/10 09:22:56;;;;;;;26.08;12.52;;;;;;;13.32;100.00;100814.97;4982980;28;20030;-85
2023/05/10 09:25:22;;;;;;;21.73;12.05;;;;;;;13.33;100.00;100815.84;5015144;28;20495;-85
2023/05/10 09:27:48;;;;;;;17.58;10.57;;;;;;;13.41;100.00;100816.91;4999623;28;20041;-85
2023/05/10 09:30:28;;;;;;;20.95;10.52;;;;;;;13.48;100.00;100817.19;5014485;28;20164;-86
2023/05/10 09:32:55;;;;;;;20.40;10.32;;;;;;;13.50;100.00;100817.06;4999102;28;20030;-86
2023/05/10 09:35:22;;;;;;;16.15;9.55;;;;;;;13.51;100.00;100816.03;4999237;28;20044;-85
2023/05/10 09:37:56;;;;;;;21.45;8.68;;;;;;;13.38;100.00;100811.66;5032567;28;20045;-85
2023/05/10 09:40:26;;;;;;;15.63;8.55;;;;;;;13.57;100.00;100827.34;5033056;28;20036;-85
2023/05/10 09:43:03;;;;;;;19.08;9.20;;;;;;;13.63;100.00;100831.41;5018064;28;20032;-85
2023/05/10 09:45:30;;;;;;;15.75;9.93;;;;;;;13.65;100.00;100826.63;4999154;28;20038;-85
2023/05/10 09:47:58;;;;;;;20.65;10.20;;;;;;;13.57;100.00;100829.22;4999653;28;20380;-85
2023/05/10 09:50:24;;;;;;;16.13;9.25;;;;;;;13.47;100.00;100839.34;4998613;28;20034;-85
2023/05/10 09:52:54;;;;;;;18.20;9.15;;;;;;;13.57;100.00;100831.97;5015369;28;20374;-85
2023/05/10 09:55:21;;;;;;;18.55;10.30;;;;;;;13.78;100.00;100840.13;4982383;28;20186;-84
2023/05/10 09:57:48;;;;;;;20.80;10.00;;;;;;;13.72;100.00;100825.03;4998580;28;20030;-85
2023/05/10 10:00:20;;;;;;;14.20;8.93;;;;;;;13.86;100.00;100839.41;5013956;28;20595;-85
2023/05/10 10:02:56;;;;;;;19.95;10.77;;;;;;;14.03;100.00;100821.31;4998219;28;20069;-86
2023/05/10 10:05:28;;;;;;;18.75;9.63;;;;;;;14.32;100.00;100835.91;5014986;28;20022;-86
2023/05/10 10:07:54;;;;;;;16.58;9.32;;;;;;;14.47;100.00;100833.59;4998290;28;20026;-85
2023/05/10 10:10:19;;;;;;;17.55;8.43;;;;;;;14.62;100.00;100828.50;4963737;28;20042;-85
2023/05/10 10:12:46;;;;;;;17.27;9.10;;;;;;;14.45;100.00;100837.53;4998470;28;20042;-85
2023/05/10 10:15:11;;;;;;;15.60;8.13;;;;;;;14.53;100.00;100826.63;4994885;28;20045;-85
2023/05/10 10:17:38;;;;;;;19.38;9.07;;;;;;;14.60;100.00;100835.19;4982567;28;20050;-85
2023/05/10 10:20:05;;;;;;;20.25;8.77;;;;;;;14.66;100.00;100835.47;4996796;28;20477;-86
2023/05/10 10:22:30;;;;;;;16.25;8.70;;;;;;;14.68;100.00;100836.19;4982332;28;20080;-86
2023/05/10 10:24:56;;;;;;;16.30;9.05;;;;;;;14.40;100.00;100837.94;4981066;28;20033;-85
2023/05/10 10:27:48;;;;;;;14.32;8.88;;;;;;;14.38;100.00;100831.72;4998487;28;20042;-85
2023/05/10 10:30:34;;;;;;;16.75;9.43;;;;;;;14.47;100.00;100841.84;5013524;28;20038;-85
2023/05/10 10:33:03;;;;;;;17.67;9.77;;;;;;;14.74;100.00;100840.25;5013459;28;20041;-87
2023/05/10 10:35:32;;;;;;;18.38;10.38;;;;;;;14.96;100.00;100825.22;5007550;28;20132;-89
2023/05/10 10:37:58;;;;;;;19.35;10.10;;;;;;;15.44;100.00;100831.53;5023281;28;20048;-90
2023/05/10 10:40:33;;;;;;;19.70;10.95;;;;;;;15.21;100.00;100833.81;5144806;23;20518;-87
2023/05/10 10:46:11;;;;;;;14.98;9.10;;;;;;;15.31;100.00;100831.03;5142556;23;20040;-89
2023/05/10 10:48:36;;;;;;;15.52;9.98;;;;;;;15.37;100.00;100834.03;5078456;28;20067;-89
2023/05/10 10:51:02;;;;;;;13.93;10.45;;;;;;;15.42;100.00;100836.34;5073553;28;20025;-89
2023/05/10 10:53:28;;;;;;;18.55;10.40;;;;;;;15.24;100.00;100839.03;5054095;28;20060;-89
2023/05/10 10:56:09;;;;;;;18.05;11.50;;;;;;;15.29;100.00;100822.03;5053596;28;20037;-89
2023/05/10 10:58:35;;;;;;;17.50;10.60;;;;;;;15.26;100.00;100831.47;5083906;28;20157;-89
2023/05/10 11:14:05;;;;;;;11.73;8.75;;;;;;;15.57;100.00;100834.78;5459807;22;20060;-88
2023/05/10 11:29:26;;;;;;;18.00;9.63;;;;;;;16.17;100.00;100836.13;5094946;22;20049;-85
2023/05/10 11:32:00;;;;;;;13.07;7.13;;;;;;;16.20;100.00;100830.31;5522244;22;20057;-84
2023/05/10 11:34:30;;;;;;;10.07;7.15;;;;;;;16.59;100.00;100840.97;5041929;28;20067;-89
2023/05/10 11:36:56;;;;;;;8.25;6.38;;;;;;;16.59;100.00;100843.72;5060064;28;20092;-90
2023/05/10 11:39:26;;;;;;;9.77;6.80;;;;;;;16.48;100.00;100825.53;5056677;28;20020;-88
2023/05/10 11:41:51;;;;;;;10.38;6.60;;;;;;;16.32;100.00;100819.88;5086278;28;20029;-91
2023/05/10 11:44:17;;;;;;;12.90;8.52;;;;;;;15.92;100.00;100832.25;5069446;28;20067;-88
2023/05/10 11:46:42;;;;;;;11.50;8.90;;;;;;;15.61;100.00;100825.19;5048022;28;20018;-89
2023/05/10 11:49:08;;;;;;;14.98;9.48;;;;;;;15.51;100.00;100832.66;5046405;28;20044;-87
2023/05/10 11:51:39;;;;;;;13.55;9.27;;;;;;;15.70;100.00;100834.41;5411389;22;20364;-89
2023/05/10 11:54:10;;;;;;;17.67;11.57;;;;;;;16.20;100.00;100819.25;5105215;28;20059;-93
2023/05/10 11:56:40;;;;;;;21.98;13.27;;;;;;;16.65;100.00;100822.88;5076785;28;20382;-89
2023/05/10 11:59:06;;;;;;;23.30;14.05;;;;;;;17.16;100.00;100842.41;5074647;28;20033;-87
2023/05/10 12:01:32;;;;;;;23.63;13.82;;;;;;;17.16;100.00;100831.34;5059966;28;20039;-87
2023/05/10 12:03:59;;;;;;;21.25;13.57;;;;;;;16.63;100.00;100820.28;5068128;28;20036;-90
2023/05/10 12:06:30;;;;;;;23.02;13.82;;;;;;;16.57;100.00;100840.25;5053999;28;20502;-90